Time;durP1;ratioP1;P1;durP2;ratioP2;P2;SDS_P1;SDS_P2;PMS_P1;PMS_P2;Temp;Humidity;BMP_temperature;BMP_pressure;BME280_temperature;BME280_humidity;BME280_pressure;Samples;Min_cycle;Max_cycle;Signal;HPM_P1;HPM_P2
2022/01/21 00:00:20;;;;;;;6.63;2.10;;;;;;;-1.55;100.00;103185.66;2107461;28;20105;-64
2022/01/21 00:01:22;;;;;;;14.93;2.70;;;;;;;-1.58;100.00;103182.97;2107504;28;20038;-64
2022/01/21 00:02:24;;;;;;;8.32;2.53;;;;;;;-1.59;100.00;103189.78;2107371;28;20107;-63
2022/01/21 00:03:24;;;;;;;7.70;2.60;;;;;;;-1.59;100.00;103191.44;2106625;28;20016;-63
2022/01/21 00:04:24;;;;;;;10.17;2.70;;;;;;;-1.60;100.00;103189.72;2106730;28;20047;-63
2022/01/21 00:05:25;;;;;;;7.23;2.43;;;;;;;-1.61;100.00;103188.81;2107037;28;20020;-63
2022/01/21 00:06:25;;;;;;;10.17;2.50;;;;;;;-1.62;100.00;103187.06;2107407;28;20024;-64
2022/01/21 00:07:25;;;;;;;11.17;2.60;;;;;;;-1.61;100.00;103191.38;2106649;28;20028;-64
2022/01/21 00:08:26;;;;;;;12.57;3.43;;;;;;;-1.60;100.00;103188.03;2106808;28;20047;-64
2022/01/21 00:09:26;;;;;;;10.48;2.42;;;;;;;-1.61;100.00;103186.25;2107386;28;20020;-63
2022/01/21 00:10:27;;;;;;;11.33;2.77;;;;;;;-1.60;100.00;103193.16;2107297;28;20027;-64
2022/01/21 00:11:30;;;;;;;4.40;1.50;;;;;;;-1.61;100.00;103196.50;2106712;28;20028;-64
2022/01/21 00:12:31;;;;;;;6.03;2.55;;;;;;;-1.60;100.00;103193.16;2098555;28;20420;-63
2022/01/21 00:13:35;;;;;;;6.15;1.88;;;;;;;-1.64;100.00;103186.09;2106628;28;20466;-63
2022/01/21 00:14:35;;;;;;;7.05;2.58;;;;;;;-1.63;100.00;103182.75;2107258;28;20493;-63
2022/01/21 00:15:35;;;;;;;6.47;1.80;;;;;;;-1.64;100.00;103183.53;2107203;28;20035;-63
2022/01/21 00:16:38;;;;;;;7.97;2.67;;;;;;;-1.60;100.00;103188.03;2107297;28;20057;-63
2022/01/21 00:17:38;;;;;;;10.77;3.70;;;;;;;-1.50;100.00;103185.88;2107216;28;20024;-63
2022/01/21 00:18:42;;;;;;;6.95;2.28;;;;;;;-1.42;100.00;103176.84;2107330;28;20084;-63
2022/01/21 00:19:46;;;;;;;9.25;2.30;;;;;;;-1.40;100.00;103180.38;2107280;28;20504;-64
2022/01/21 00:30:14;;;;;;;6.88;2.50;;;;;;;-1.08;100.00;103188.63;2089554;28;20024;-64
2022/01/21 00:31:15;;;;;;;4.72;2.30;;;;;;;-1.06;100.00;103183.56;2107174;28;20435;-64
2022/01/21 00:32:15;;;;;;;9.03;2.43;;;;;;;-1.09;100.00;103188.56;2107226;28;20249;-64
2022/01/21 00:33:16;;;;;;;5.93;2.00;;;;;;;-1.17;100.00;103178.84;2106503;28;20476;-64
2022/01/21 00:34:16;;;;;;;7.77;2.00;;;;;;;-1.18;100.00;103186.44;2098127;28;20032;-64
2022/01/21 00:35:18;;;;;;;9.20;2.47;;;;;;;-1.15;100.00;103181.47;2097843;28;20458;-64
2022/01/21 00:36:18;;;;;;;5.32;2.00;;;;;;;-1.13;100.00;103179.84;2106534;28;20103;-64
2022/01/21 00:37:19;;;;;;;7.50;1.97;;;;;;;-1.13;100.00;103179.84;2107137;28;20023;-64
2022/01/21 00:38:22;;;;;;;7.43;1.90;;;;;;;-1.10;100.00;103184.25;2107143;28;20563;-63
2022/01/21 00:39:25;;;;;;;7.43;2.33;;;;;;;-1.10;100.00;103181.69;2107067;28;20278;-63
2022/01/21 00:40:26;;;;;;;10.40;2.85;;;;;;;-1.11;100.00;103183.34;2106420;28;20051;-64
2022/01/21 00:41:31;;;;;;;4.53;1.95;;;;;;;-1.10;100.00;103179.97;2106514;28;20400;-63
2022/01/21 00:42:50;;;;;;;8.63;2.88;;;;;;;-1.13;100.00;103179.84;2107105;28;20023;-63
2022/01/21 00:43:50;;;;;;;6.55;1.63;;;;;;;-1.25;100.00;103182.75;2107069;28;20031;-64
2022/01/21 00:44:52;;;;;;;10.73;2.73;;;;;;;-1.34;100.00;103182.31;2107115;28;20012;-64
2022/01/21 00:45:53;;;;;;;8.55;1.90;;;;;;;-1.39;100.00;103176.13;2107100;28;20065;-64
2022/01/21 00:46:53;;;;;;;9.52;2.03;;;;;;;-1.41;100.00;103182.88;2107001;28;20538;-64
2022/01/21 00:47:53;;;;;;;9.13;2.80;;;;;;;-1.37;100.00;103177.94;2107155;28;20024;-64
2022/01/21 00:48:53;;;;;;;12.47;2.43;;;;;;;-1.41;100.00;103183.72;2107106;28;20389;-64
2022/01/21 00:49:55;;;;;;;7.87;2.00;;;;;;;-1.47;100.00;103180.91;2106995;28;20028;-64
2022/01/21 00:50:56;;;;;;;9.43;2.20;;;;;;;-1.43;100.00;103180.25;2107064;28;20023;-64
2022/01/21 00:51:56;;;;;;;11.30;3.20;;;;;;;-1.35;100.00;103181.47;2107161;28;20129;-64
2022/01/21 00:52:56;;;;;;;10.50;2.73;;;;;;;-1.32;100.00;103181.59;2107078;28;20028;-64
2022/01/21 00:53:57;;;;;;;6.93;2.33;;;;;;;-1.25;100.00;103184.41;2106980;28;20046;-63
2022/01/21 00:54:57;;;;;;;12.33;2.03;;;;;;;-1.23;100.00;103182.81;2107156;28;20481;-64
2022/01/21 00:55:57;;;;;;;10.93;2.63;;;;;;;-1.24;100.00;103186.16;2107129;28;20496;-64
2022/01/21 00:56:58;;;;;;;11.13;2.43;;;;;;;-1.30;100.00;103186.81;2107156;28;20024;-63
2022/01/21 00:57:58;;;;;;;6.83;2.00;;;;;;;-1.30;100.00;103186.81;2107019;28;20824;-63
2022/01/21 00:58:58;;;;;;;9.47;3.13;;;;;;;-1.25;100.00;103187.00;2106849;28;20374;-64
2022/01/21 00:59:59;;;;;;;8.73;1.93;;;;;;;-1.25;100.00;103179.28;2106960;28;20289;-64
2022/01/21 01:00:59;;;;;;;7.67;2.00;;;;;;;-1.28;100.00;103189.41;2106958;28;20469;-65
2022/01/21 01:01:59;;;;;;;9.00;1.63;;;;;;;-1.32;100.00;103188.41;2106919;28;20023;-65
2022/01/21 01:03:01;;;;;;;12.10;2.87;;;;;;;-1.35;100.00;103189.16;2106923;28;20020;-64
2022/01/21 01:04:02;;;;;;;9.90;2.10;;;;;;;-1.30;100.00;103190.22;2106830;28;20071;-64
2022/01/21 01:05:03;;;;;;;11.95;2.55;;;;;;;-1.26;100.00;103196.38;2106887;28;20031;-65
2022/01/21 01:06:04;;;;;;;12.02;1.90;;;;;;;-1.25;100.00;103202.34;2106922;28;20024;-64
2022/01/21 01:07:04;;;;;;;14.13;2.33;;;;;;;-1.28;100.00;103205.66;2107018;28;20031;-64
2022/01/21 01:08:05;;;;;;;9.52;2.15;;;;;;;-1.31;100.00;103198.72;2106926;28;20024;-64
2022/01/21 01:09:05;;;;;;;6.40;2.20;;;;;;;-1.26;100.00;103198.94;2106900;28;20023;-64
2022/01/21 01:10:11;;;;;;;7.20;2.10;;;;;;;-1.26;100.00;103201.50;2106940;28;20020;-63
2022/01/21 01:11:18;;;;;;;8.40;2.08;;;;;;;-1.27;100.00;103204.00;2106891;28;20031;-63
2022/01/21 01:12:49;;;;;;;8.50;2.28;;;;;;;-1.33;100.00;103202.03;2106805;28;20028;-64
2022/01/21 01:20:25;;;;;;;9.48;2.50;;;;;;;-1.47;100.00;103193.72;2106896;28;20114;-63
2022/01/21 01:21:25;;;;;;;4.37;1.60;;;;;;;-1.49;100.00;103190.19;2106839;28;20031;-64
2022/01/21 01:22:39;;;;;;;5.67;1.50;;;;;;;-1.44;100.00;103186.16;2106858;28;20045;-64
2022/01/21 01:24:01;;;;;;;5.68;1.38;;;;;;;-1.45;100.00;103189.53;2106719;28;20365;-64
2022/01/21 01:27:41;;;;;;;10.05;2.30;;;;;;;-1.69;100.00;103179.91;2106806;28;20457;-63
2022/01/21 01:28:41;;;;;;;8.73;1.88;;;;;;;-1.68;100.00;103176.53;2106819;28;20465;-63
2022/01/21 01:29:42;;;;;;;9.03;1.80;;;;;;;-1.66;100.00;103177.50;2106743;28;20032;-63
2022/01/21 01:30:42;;;;;;;11.33;2.80;;;;;;;-1.67;100.00;103175.75;2106770;28;20035;-63
2022/01/21 01:31:43;;;;;;;10.40;1.87;;;;;;;-1.67;100.00;103178.31;2106162;28;20035;-64
2022/01/21 01:32:47;;;;;;;10.63;1.42;;;;;;;-1.72;100.00;103169.50;2106237;28;20048;-64
2022/01/21 01:33:47;;;;;;;8.30;1.90;;;;;;;-1.76;100.00;103175.31;2106797;28;20024;-64
2022/01/21 01:34:48;;;;;;;9.70;2.17;;;;;;;-1.77;100.00;103173.56;2106742;28;20048;-64
2022/01/21 01:35:49;;;;;;;5.80;1.60;;;;;;;-1.77;100.00;103174.44;2106032;28;20051;-64
2022/01/21 01:36:49;;;;;;;10.50;2.20;;;;;;;-1.77;100.00;103173.56;2106190;28;20045;-64
2022/01/21 01:41:15;;;;;;;7.00;2.10;;;;;;;-1.72;100.00;103169.50;2106839;28;20112;-64
2022/01/21 01:49:30;;;;;;;8.07;1.48;;;;;;;-1.35;100.00;103167.75;2106797;28;20429;-64
2022/01/21 01:50:30;;;;;;;10.45;1.52;;;;;;;-1.40;100.00;103164.13;2106574;28;20073;-62
2022/01/21 01:51:31;;;;;;;11.23;2.10;;;;;;;-1.37;100.00;103175.38;2106693;28;20515;-64
2022/01/21 01:52:32;;;;;;;5.28;1.65;;;;;;;-1.38;100.00;103165.94;2106026;28;20060;-63
2022/01/21 01:53:38;;;;;;;4.93;2.08;;;;;;;-1.38;100.00;103163.38;2106117;28;20035;-63
2022/01/21 01:54:45;;;;;;;5.68;1.15;;;;;;;-1.38;100.00;103163.38;2106478;28;20071;-64
2022/01/21 01:55:46;;;;;;;10.90;2.22;;;;;;;-1.40;100.00;103172.69;2106528;28;20025;-63
2022/01/21 01:56:51;;;;;;;8.98;2.00;;;;;;;-1.40;100.00;103170.13;2106640;28;20063;-63
2022/01/21 01:57:53;;;;;;;10.90;2.03;;;;;;;-1.41;100.00;103168.34;2106614;28;20020;-63
2022/01/21 01:58:54;;;;;;;13.55;1.85;;;;;;;-1.39;100.00;103177.00;2106573;28;20024;-64
2022/01/21 01:59:54;;;;;;;11.05;1.88;;;;;;;-1.39;100.00;103176.13;2106517;28;20078;-63
2022/01/21 02:00:56;;;;;;;7.87;2.10;;;;;;;-1.40;100.00;103164.13;2106596;28;20591;-63
2022/01/21 02:02:06;;;;;;;11.00;2.50;;;;;;;-1.39;100.00;103171.88;2106482;28;20032;-63
2022/01/21 02:03:08;;;;;;;6.20;1.95;;;;;;;-1.40;100.00;103170.13;2106595;28;20032;-64
2022/01/21 02:04:09;;;;;;;8.90;1.40;;;;;;;-1.42;100.00;103161.50;2106530;28;20024;-63
2022/01/21 02:05:09;;;;;;;5.47;1.60;;;;;;;-1.42;100.00;103169.19;2105860;28;20517;-63
2022/01/21 02:06:10;;;;;;;9.13;1.67;;;;;;;-1.39;100.00;103168.44;2105936;28;20480;-63
2022/01/21 02:07:11;;;;;;;9.97;1.67;;;;;;;-1.38;100.00;103168.50;2105917;28;20290;-63
2022/01/21 02:08:11;;;;;;;4.68;1.35;;;;;;;-1.34;100.00;103170.41;2105905;28;20497;-63
2022/01/21 02:09:11;;;;;;;6.30;1.02;;;;;;;-1.30;100.00;103167.16;2106578;28;20032;-63
2022/01/21 02:10:12;;;;;;;9.40;1.70;;;;;;;-1.25;100.00;103179.28;2106623;28;20419;-63
2022/01/21 02:11:12;;;;;;;9.90;1.83;;;;;;;-1.30;100.00;103167.16;2106600;28;20020;-63
2022/01/21 02:12:13;;;;;;;7.73;1.83;;;;;;;-1.26;100.00;103169.88;2106468;28;20020;-63
2022/01/21 02:13:25;;;;;;;12.00;2.63;;;;;;;-1.24;100.00;103170.78;2106587;28;20028;-63
2022/01/21 02:14:30;;;;;;;5.45;1.35;;;;;;;-1.23;100.00;103175.13;2105785;28;20517;-63
2022/01/21 02:15:38;;;;;;;7.10;1.50;;;;;;;-1.24;100.00;103171.69;2105888;28;20375;-63
2022/01/21 02:21:55;;;;;;;6.80;1.13;;;;;;;-1.37;100.00;103175.38;2106619;28;20024;-63
2022/01/21 02:22:56;;;;;;;13.17;2.20;;;;;;;-1.35;100.00;103175.44;2106637;28;20055;-63
2022/01/21 02:24:02;;;;;;;8.37;1.43;;;;;;;-1.32;100.00;103181.59;2106500;28;20427;-63
2022/01/21 02:25:15;;;;;;;6.20;1.50;;;;;;;-1.33;100.00;103176.41;2105841;28;20115;-63
2022/01/21 02:26:15;;;;;;;7.22;1.80;;;;;;;-1.35;100.00;103173.78;2105970;28;20052;-63
2022/01/21 02:27:16;;;;;;;6.70;1.43;;;;;;;-1.34;100.00;103170.41;2106503;28;20511;-63
2022/01/21 02:28:16;;;;;;;5.85;1.60;;;;;;;-1.33;100.00;103167.00;2107527;28;20028;-63
2022/01/21 02:29:44;;;;;;;9.23;1.77;;;;;;;-1.36;100.00;103161.78;2108291;28;20082;-63
2022/01/21 02:30:55;;;;;;;4.68;1.42;;;;;;;-1.37;100.00;103160.00;2107532;28;20051;-63
2022/01/21 02:31:57;;;;;;;4.57;1.27;;;;;;;-1.36;100.00;103164.34;2107506;28;20043;-63
2022/01/21 02:32:59;;;;;;;10.65;2.25;;;;;;;-1.36;100.00;103172.03;2107621;28;20062;-63
2022/01/21 02:33:59;;;;;;;7.80;2.60;;;;;;;-1.35;100.00;103168.66;2108210;28;20024;-64
2022/01/21 02:35:00;;;;;;;9.02;1.70;;;;;;;-1.36;100.00;103166.91;2108215;28;20016;-63
2022/01/21 02:36:00;;;;;;;6.72;1.35;;;;;;;-1.37;100.00;103166.84;2107965;28;20413;-63
2022/01/21 02:37:01;;;;;;;8.10;2.00;;;;;;;-1.39;100.00;103161.63;2108294;28;20039;-62
2022/01/21 02:38:01;;;;;;;10.87;1.90;;;;;;;-1.38;100.00;103165.06;2108118;28;20742;-63
2022/01/21 02:39:02;;;;;;;6.53;2.13;;;;;;;-1.41;100.00;103164.94;2108164;28;20056;-64
2022/01/21 02:40:03;;;;;;;9.00;2.03;;;;;;;-1.48;100.00;103166.31;2107430;28;20034;-64
2022/01/21 02:41:03;;;;;;;7.70;2.28;;;;;;;-1.54;100.00;103171.19;2107553;28;20036;-64
2022/01/21 02:42:04;;;;;;;6.90;2.03;;;;;;;-1.59;100.00;103163.28;2108223;28;20027;-64
2022/01/21 02:43:04;;;;;;;6.40;1.27;;;;;;;-1.65;100.00;103168.13;2107482;28;20046;-64
2022/01/21 02:44:04;;;;;;;11.83;2.00;;;;;;;-1.68;100.00;103163.72;2107572;28;20056;-64
2022/01/21 02:45:07;;;;;;;5.43;1.50;;;;;;;-1.66;100.00;103169.81;2108213;28;20469;-64
2022/01/21 02:46:09;;;;;;;7.13;1.58;;;;;;;-1.70;100.00;103165.34;2108076;28;20020;-64
2022/01/21 02:47:10;;;;;;;10.75;2.33;;;;;;;-1.76;100.00;103167.63;2108120;28;20058;-64
2022/01/21 02:48:11;;;;;;;8.38;2.10;;;;;;;-1.72;100.00;103166.94;2108034;28;20036;-64
2022/01/21 02:49:12;;;;;;;10.90;1.98;;;;;;;-1.71;100.00;103163.63;2108163;28;20066;-63
2022/01/21 02:50:15;;;;;;;14.00;2.25;;;;;;;-1.72;100.00;103166.94;2108043;28;20069;-64
2022/01/21 02:51:16;;;;;;;5.35;1.50;;;;;;;-1.72;100.00;103166.94;2108068;28;20024;-64
2022/01/21 02:52:18;;;;;;;4.57;1.60;;;;;;;-1.76;100.00;103162.50;2108045;28;20028;-64
2022/01/21 02:54:22;;;;;;;11.43;2.55;;;;;;;-1.78;100.00;103171.81;2107894;28;20099;-64
2022/01/21 02:55:24;;;;;;;8.63;1.73;;;;;;;-1.83;100.00;103172.47;2107901;28;20024;-63
2022/01/21 02:56:24;;;;;;;5.63;1.90;;;;;;;-1.81;100.00;103175.09;2107967;28;20020;-63
2022/01/21 02:57:25;;;;;;;8.37;2.17;;;;;;;-1.83;100.00;103179.25;2108035;28;20475;-62
2022/01/21 02:58:25;;;;;;;8.60;1.70;;;;;;;-1.85;100.00;103180.88;2108005;28;20028;-63
2022/01/21 02:59:26;;;;;;;11.10;1.73;;;;;;;-1.88;100.00;103184.16;2108095;28;20028;-63
2022/01/21 03:00:27;;;;;;;6.57;1.88;;;;;;;-1.75;100.00;103182.19;2107953;28;20134;-63
2022/01/21 03:01:28;;;;;;;5.20;1.50;;;;;;;-1.71;100.00;103174.72;2107943;28;20024;-63
2022/01/21 03:02:28;;;;;;;3.17;1.33;;;;;;;-1.71;100.00;103178.97;2107940;28;20055;-63
2022/01/21 03:03:28;;;;;;;8.10;1.77;;;;;;;-1.76;100.00;103180.41;2108034;28;20032;-64
2022/01/21 03:04:38;;;;;;;14.40;1.67;;;;;;;-1.82;100.00;103187.03;2108005;28;20143;-64
2022/01/21 03:05:39;;;;;;;10.98;1.92;;;;;;;-1.83;100.00;103184.38;2107984;28;20154;-64
2022/01/21 03:06:40;;;;;;;12.20;2.80;;;;;;;-1.82;100.00;103187.03;2108016;28;20031;-64
2022/01/21 03:07:40;;;;;;;6.07;1.58;;;;;;;-1.85;100.00;103181.75;2107918;28;20103;-64
2022/01/21 03:08:42;;;;;;;9.55;1.55;;;;;;;-1.81;100.00;103178.53;2107959;28;20048;-64
2022/01/21 03:09:42;;;;;;;5.63;1.50;;;;;;;-1.81;100.00;103183.66;2107193;28;20353;-63
2022/01/21 03:10:42;;;;;;;10.03;2.00;;;;;;;-1.85;100.00;103181.75;2107267;28;20024;-64
2022/01/21 03:11:43;;;;;;;9.50;1.93;;;;;;;-1.83;100.00;103182.72;2107914;28;20012;-64
2022/01/21 03:12:43;;;;;;;12.10;1.90;;;;;;;-1.82;100.00;103179.34;2107151;28;20416;-63
2022/01/21 03:13:44;;;;;;;5.30;2.00;;;;;;;-1.84;100.00;103175.81;2107209;28;20027;-64
2022/01/21 03:14:45;;;;;;;;;;;;;;;-1.87;100.00;103178.25;2108318;28;20028;-64
2022/01/21 03:15:45;;;;;;;8.70;1.60;;;;;;;-1.94;100.00;103173.66;2107867;28;20395;-64
2022/01/21 03:16:46;;;;;;;4.80;1.53;;;;;;;-1.94;100.00;103176.22;2107927;28;20213;-64
2022/01/21 03:17:46;;;;;;;11.20;2.00;;;;;;;-1.93;100.00;103185.63;2107282;28;20500;-64
2022/01/21 03:18:46;;;;;;;10.50;2.53;;;;;;;-1.89;100.00;103179.84;2098829;28;20059;-64
2022/01/21 03:19:46;;;;;;;7.63;1.40;;;;;;;-1.85;100.00;103186.88;2107212;28;20119;-63
2022/01/21 03:20:47;;;;;;;9.00;1.50;;;;;;;-1.87;100.00;103193.63;2107893;28;20103;-64
2022/01/21 03:21:47;;;;;;;9.67;1.77;;;;;;;-1.91;100.00;103181.47;2107865;28;20034;-64
2022/01/21 03:22:48;;;;;;;9.27;2.00;;;;;;;-1.93;100.00;103193.31;2107992;28;20066;-63
2022/01/21 03:23:52;;;;;;;11.00;2.87;;;;;;;-2.03;100.00;103186.88;2107136;28;20031;-62
2022/01/21 03:24:52;;;;;;;9.05;1.63;;;;;;;-2.09;100.00;103192.56;2107027;28;20039;-63
2022/01/21 03:25:53;;;;;;;7.10;2.00;;;;;;;-2.11;100.00;103188.19;2107693;28;20050;-63
2022/01/21 03:26:53;;;;;;;10.90;2.40;;;;;;;-2.05;100.00;103188.50;2107758;28;20052;-63
2022/01/21 03:27:53;;;;;;;7.03;1.53;;;;;;;-2.05;100.00;103185.06;2107002;28;20065;-63
2022/01/21 03:28:59;;;;;;;8.93;2.43;;;;;;;-2.07;100.00;103184.97;2107128;28;20155;-64
2022/01/21 03:29:59;;;;;;;7.95;1.88;;;;;;;-2.11;100.00;103189.06;2107670;28;20031;-64
2022/01/21 03:30:59;;;;;;;13.60;2.17;;;;;;;-2.11;100.00;103189.06;2107097;28;20408;-63
2022/01/21 03:32:00;;;;;;;5.83;1.40;;;;;;;-2.12;100.00;103191.56;2107121;28;20016;-64
2022/01/21 03:33:00;;;;;;;6.03;2.03;;;;;;;-2.10;100.00;103193.38;2107713;28;20424;-64
2022/01/21 03:34:02;;;;;;;8.33;1.50;;;;;;;-2.13;100.00;103195.78;2107672;28;20036;-63
2022/01/21 03:35:03;;;;;;;11.75;1.83;;;;;;;-2.18;100.00;103191.25;2107725;28;20502;-63
2022/01/21 03:36:04;;;;;;;2.83;1.15;;;;;;;-2.21;100.00;103203.09;2107511;28;20459;-63
2022/01/21 03:37:04;;;;;;;5.18;1.60;;;;;;;-2.14;100.00;103199.16;2107576;28;20036;-63
2022/01/21 03:38:04;;;;;;;4.70;1.93;;;;;;;-1.96;100.00;103198.28;2107538;28;20036;-63
2022/01/21 03:39:05;;;;;;;4.17;1.20;;;;;;;-1.86;100.00;103194.47;2107700;28;20028;-63
2022/01/21 03:40:06;;;;;;;8.67;1.67;;;;;;;-1.83;100.00;103205.75;2106758;28;20447;-63
2022/01/21 03:41:06;;;;;;;5.90;1.52;;;;;;;-1.83;100.00;103205.75;2107657;28;20028;-63
2022/01/21 03:42:07;;;;;;;6.07;1.63;;;;;;;-1.89;100.00;103197.78;2107644;28;20039;-64
2022/01/21 03:43:07;;;;;;;7.70;2.27;;;;;;;-1.90;100.00;103203.69;2107654;28;20028;-63
2022/01/21 03:44:07;;;;;;;7.77;2.10;;;;;;;-1.92;100.00;103210.41;2107569;28;20023;-62
2022/01/21 03:45:09;;;;;;;10.13;1.83;;;;;;;-1.95;100.00;103203.47;2107651;28;20020;-63
2022/01/21 03:46:09;;;;;;;9.20;2.28;;;;;;;-1.86;100.00;103204.72;2107551;28;20482;-63
2022/01/21 03:47:09;;;;;;;9.27;1.80;;;;;;;-1.75;100.00;103202.69;2107645;28;20032;-63
2022/01/21 03:48:09;;;;;;;9.40;1.70;;;;;;;-1.71;100.00;103199.47;2107709;28;20032;-63
2022/01/21 03:49:10;;;;;;;5.83;1.93;;;;;;;-1.70;100.00;103194.41;2107503;28;20039;-63
2022/01/21 03:50:30;;;;;;;8.23;2.10;;;;;;;-1.73;100.00;103201.06;2107550;28;20491;-63
2022/01/21 03:51:31;;;;;;;4.43;1.83;;;;;;;-1.69;100.00;103193.59;2107548;28;20074;-63
2022/01/21 03:52:31;;;;;;;6.70;2.30;;;;;;;-1.65;100.00;103197.16;2107633;28;20074;-63
2022/01/21 03:53:31;;;;;;;10.20;1.77;;;;;;;-1.59;100.00;103194.91;2107593;28;20428;-63
2022/01/21 03:54:32;;;;;;;8.53;2.10;;;;;;;-1.58;100.00;103196.66;2107410;28;20105;-63
2022/01/21 03:55:34;;;;;;;5.65;1.55;;;;;;;-1.53;100.00;103193.41;2106730;28;20028;-63
2022/01/21 03:56:36;;;;;;;7.28;1.33;;;;;;;-1.53;100.00;103201.09;2106904;28;20031;-63
2022/01/21 03:57:37;;;;;;;6.38;1.83;;;;;;;-1.56;100.00;103195.06;2106908;28;20046;-63
2022/01/21 03:58:37;;;;;;;8.40;1.33;;;;;;;-1.52;100.00;103190.94;2106730;28;20571;-62
2022/01/21 03:59:38;;;;;;;8.30;2.53;;;;;;;-1.54;100.00;103194.22;2106786;28;20099;-62
2022/01/21 04:00:47;;;;;;;5.30;1.10;;;;;;;-1.52;100.00;103197.72;2106852;28;20142;-63
2022/01/21 04:01:47;;;;;;;11.50;1.35;;;;;;;-1.50;100.00;103198.69;2106833;28;20505;-63
2022/01/21 04:02:47;;;;;;;8.87;1.93;;;;;;;-1.49;100.00;103200.44;2107451;28;20024;-62
2022/01/21 04:03:48;;;;;;;10.47;1.73;;;;;;;-1.50;100.00;103202.16;2107485;28;20366;-62
2022/01/21 04:04:48;;;;;;;4.27;1.07;;;;;;;-1.48;100.00;103203.06;2107448;28;20020;-62
2022/01/21 04:05:49;;;;;;;10.20;1.90;;;;;;;-1.46;100.00;103200.59;2107506;28;20334;-62
2022/01/21 04:06:49;;;;;;;4.75;1.35;;;;;;;-1.46;100.00;103210.84;2106766;28;20153;-63
2022/01/21 04:07:49;;;;;;;8.23;1.80;;;;;;;-1.44;100.00;103209.19;2106878;28;20105;-63
2022/01/21 04:08:50;;;;;;;10.87;2.20;;;;;;;-1.44;100.00;103202.41;2107414;28;20085;-63
2022/01/21 04:09:50;;;;;;;8.83;2.47;;;;;;;-1.46;100.00;103195.47;2107485;28;20107;-63
2022/01/21 04:10:50;;;;;;;7.47;1.47;;;;;;;-1.44;100.00;103199.84;2106744;28;20144;-62
2022/01/21 04:11:51;;;;;;;6.23;1.40;;;;;;;-1.44;100.00;103202.41;2106940;28;20040;-62
2022/01/21 04:12:52;;;;;;;7.28;1.73;;;;;;;-1.43;100.00;103196.47;2107375;28;20393;-64
2022/01/21 04:13:54;;;;;;;9.48;1.65;;;;;;;-1.46;100.00;103195.47;2106598;28;20035;-64
2022/01/21 04:14:56;;;;;;;7.47;1.83;;;;;;;-1.48;100.00;103197.06;2098537;28;20032;-63
2022/01/21 04:15:58;;;;;;;6.90;1.38;;;;;;;-1.42;100.00;103197.34;2106729;28;20024;-63
2022/01/21 04:16:58;;;;;;;;;;;;;;;-1.45;100.00;103198.09;2107808;28;20043;-63
2022/01/21 04:17:58;;;;;;;12.07;1.52;;;;;;;-1.42;100.00;103192.22;2107366;28;19912;-63
2022/01/21 04:18:59;;;;;;;6.97;1.63;;;;;;;-1.36;100.00;103197.66;2106669;28;20106;-63
2022/01/21 04:19:59;;;;;;;5.90;1.30;;;;;;;-1.33;100.00;103187.50;2106694;28;20028;-63
2022/01/21 04:20:59;;;;;;;8.77;1.10;;;;;;;-1.33;100.00;103197.75;2106789;28;20045;-63
2022/01/21 04:22:00;;;;;;;5.50;1.43;;;;;;;-1.32;100.00;103194.41;2107413;28;20548;-63
2022/01/21 04:23:00;;;;;;;3.33;1.17;;;;;;;-1.32;100.00;103193.53;2107367;28;20031;-63
2022/01/21 04:24:02;;;;;;;5.73;1.80;;;;;;;-1.36;100.00;103197.66;2107329;28;20377;-64
2022/01/21 04:25:05;;;;;;;6.35;1.35;;;;;;;-1.38;100.00;103193.22;2107328;28;20106;-64
2022/01/21 04:26:05;;;;;;;8.15;1.35;;;;;;;-1.35;100.00;103195.94;2107203;28;20056;-63
2022/01/21 04:27:06;;;;;;;8.00;2.77;;;;;;;-1.34;100.00;103195.13;2107344;28;20345;-63
2022/01/21 04:28:06;;;;;;;6.90;1.40;;;;;;;-1.36;100.00;103187.41;2106625;28;20523;-63
2022/01/21 04:29:07;;;;;;;8.27;1.33;;;;;;;-1.35;100.00;103194.28;2106632;28;20521;-63
2022/01/21 04:30:09;;;;;;;8.20;1.57;;;;;;;-1.37;100.00;103195.88;2107237;28;20501;-65
2022/01/21 04:31:09;;;;;;;6.80;1.60;;;;;;;-1.41;100.00;103196.53;2107212;28;20537;-63
2022/01/21 04:32:10;;;;;;;7.30;1.37;;;;;;;-1.39;100.00;103192.38;2107254;28;20077;-63
2022/01/21 04:33:11;;;;;;;6.57;1.48;;;;;;;-1.33;100.00;103190.06;2106563;28;20031;-63
2022/01/21 04:34:11;;;;;;;4.22;1.50;;;;;;;-1.24;100.00;103188.72;2106519;28;20031;-63
2022/01/21 04:35:11;;;;;;;6.00;1.10;;;;;;;-1.17;100.00;103193.31;2106539;28;20030;-62
2022/01/21 04:36:12;;;;;;;9.40;1.57;;;;;;;-1.12;100.00;103190.97;2106528;28;20077;-63
2022/01/21 04:37:14;;;;;;;6.70;1.57;;;;;;;-1.11;100.00;103190.16;2107135;28;20066;-63
2022/01/21 04:38:18;;;;;;;12.80;1.33;;;;;;;-1.11;100.00;103193.59;2107075;28;20047;-64
2022/01/21 04:39:25;;;;;;;4.82;1.20;;;;;;;-1.14;100.00;103197.72;2107120;28;20389;-64
2022/01/21 04:40:30;;;;;;;6.97;1.63;;;;;;;-1.22;100.00;103194.81;2107159;28;20028;-63
2022/01/21 04:47:13;;;;;;;7.82;1.40;;;;;;;-1.27;100.00;103191.19;2107192;28;20095;-63
2022/01/21 04:47:18;;;;;;;10.63;1.75;;;;;;;-1.23;100.00;103195.63;2107129;28;20028;-63
2022/01/21 04:48:19;;;;;;;4.15;1.55;;;;;;;-1.31;100.00;103190.16;2107125;28;20028;-64
2022/01/21 04:49:19;;;;;;;4.88;1.20;;;;;;;-1.27;100.00;103191.19;2106523;28;20465;-63
2022/01/21 04:50:20;;;;;;;5.53;1.17;;;;;;;-1.25;100.00;103185.31;2106366;28;20173;-63
2022/01/21 04:51:26;;;;;;;8.53;1.50;;;;;;;-1.25;100.00;103187.88;2107100;28;20020;-63
2022/01/21 04:52:27;;;;;;;6.70;1.42;;;;;;;-1.28;100.00;103194.53;2107067;28;20110;-63
2022/01/21 04:53:28;;;;;;;6.20;1.90;;;;;;;-1.26;100.00;103187.81;2107105;28;20362;-62
2022/01/21 04:54:34;;;;;;;10.60;1.67;;;;;;;-1.32;100.00;103184.16;2106937;28;20343;-63
2022/01/21 04:55:35;;;;;;;4.78;1.45;;;;;;;-1.32;100.00;103186.72;2106959;28;20027;-63
2022/01/21 04:56:35;;;;;;;10.82;1.58;;;;;;;-1.27;100.00;103191.19;2107105;28;20020;-63
2022/01/21 04:57:36;;;;;;;7.83;1.77;;;;;;;-1.22;100.00;103189.69;2106982;28;20372;-64
2022/01/21 04:58:36;;;;;;;5.38;1.30;;;;;;;-1.19;100.00;103189.84;2107127;28;20373;-63
2022/01/21 04:59:38;;;;;;;5.37;1.37;;;;;;;-1.23;100.00;103181.13;2107036;28;20032;-64
2022/01/21 05:00:38;;;;;;;8.80;1.98;;;;;;;-1.25;100.00;103189.53;2106394;28;20036;-64
2022/01/21 05:01:39;;;;;;;5.97;1.33;;;;;;;-1.21;100.00;103186.31;2106278;28;20032;-63
2022/01/21 05:02:39;;;;;;;7.20;1.07;;;;;;;-1.17;100.00;103190.75;2106139;28;20044;-63
2022/01/21 05:03:41;;;;;;;5.00;1.50;;;;;;;-1.13;100.00;103189.22;2106407;28;20028;-63
2022/01/21 05:04:41;;;;;;;4.72;1.58;;;;;;;-1.14;100.00;103180.66;2106935;28;20027;-63
2022/01/21 05:05:42;;;;;;;7.67;1.87;;;;;;;-1.13;100.00;103190.09;2106215;28;20189;-63
2022/01/21 05:06:42;;;;;;;6.38;1.17;;;;;;;-1.13;100.00;103179.84;2106303;28;20023;-62
2022/01/21 05:07:43;;;;;;;5.83;1.07;;;;;;;-1.09;100.00;103180.88;2106919;28;20048;-63
2022/01/21 05:08:50;;;;;;;9.45;1.73;;;;;;;-1.08;100.00;103178.38;2107013;28;20429;-63
2022/01/21 05:09:50;;;;;;;4.78;1.13;;;;;;;-1.10;100.00;103179.97;2106833;28;20027;-63
2022/01/21 05:10:50;;;;;;;8.63;1.63;;;;;;;-1.09;100.00;103176.59;2106960;28;20044;-63
2022/01/21 05:11:52;;;;;;;8.93;2.00;;;;;;;-1.09;100.00;103168.91;2106252;28;20042;-62
2022/01/21 05:12:54;;;;;;;9.98;1.65;;;;;;;-1.07;100.00;103174.09;2097998;28;20016;-63
2022/01/21 05:13:58;;;;;;;5.70;1.58;;;;;;;-1.06;100.00;103174.19;2106289;28;20031;-64
2022/01/21 05:16:06;;;;;;;6.37;1.30;;;;;;;-1.11;100.00;103178.22;2106784;28;20085;-63
2022/01/21 05:17:07;;;;;;;8.40;1.80;;;;;;;-1.07;100.00;103182.69;2106890;28;20389;-63
2022/01/21 05:18:07;;;;;;;;;;;;;;;-1.12;100.00;103176.50;2107272;28;20034;-63
2022/01/21 05:19:14;;;;;;;7.10;1.58;;;;;;;-1.22;100.00;103174.31;2106895;28;19908;-63
2022/01/21 05:20:16;;;;;;;9.18;1.40;;;;;;;-1.26;100.00;103178.44;2106958;28;20016;-63
2022/01/21 05:21:16;;;;;;;;;;;;;;;-1.26;100.00;103178.44;2107214;28;20527;-64
2022/01/21 05:22:16;;;;;;;8.70;1.35;;;;;;;-1.22;100.00;103179.44;2106832;28;19941;-63
2022/01/21 05:23:16;;;;;;;4.37;1.23;;;;;;;-1.17;100.00;103177.94;2106884;28;20046;-64
2022/01/21 05:24:22;;;;;;;6.83;1.93;;;;;;;-1.17;100.00;103177.94;2106098;28;20036;-63
2022/01/21 05:25:22;;;;;;;10.32;2.83;;;;;;;-1.13;100.00;103184.09;2106189;28;20401;-63